sensor_id;sensor_type;location;lat;lon;timestamp;P1;durP1;ratioP1;P2;durP2;ratioP2
77099;SDS011;66602;48.922;2.414;2023-02-15T00:01:48;52.22;;;27.67;;
77099;SDS011;66602;48.922;2.414;2023-02-15T00:04:16;67.05;;;29.25;;
77099;SDS011;66602;48.922;2.414;2023-02-15T00:06:43;73.70;;;32.83;;
77099;SDS011;66602;48.922;2.414;2023-02-15T00:09:09;67.18;;;32.90;;
77099;SDS011;66602;48.922;2.414;2023-02-15T00:11:35;69.70;;;32.55;;
77099;SDS011;66602;48.922;2.414;2023-02-15T00:14:14;76.90;;;36.80;;
77099;SDS011;66602;48.922;2.414;2023-02-15T00:16:45;83.22;;;36.05;;
77099;SDS011;66602;48.922;2.414;2023-02-15T00:19:11;78.60;;;33.50;;
77099;SDS011;66602;48.922;2.414;2023-02-15T00:21:38;71.60;;;34.05;;
77099;SDS011;66602;48.922;2.414;2023-02-15T00:24:05;64.50;;;32.30;;
77099;SDS011;66602;48.922;2.414;2023-02-15T00:26:32;69.38;;;31.65;;
77099;SDS011;66602;48.922;2.414;2023-02-15T00:28:58;68.22;;;33.42;;
77099;SDS011;66602;48.922;2.414;2023-02-15T00:31:25;67.65;;;31.20;;
77099;SDS011;66602;48.922;2.414;2023-02-15T00:33:52;62.80;;;33.53;;
77099;SDS011;66602;48.922;2.414;2023-02-15T00:36:17;79.18;;;36.35;;
77099;SDS011;66602;48.922;2.414;2023-02-15T00:38:52;71.22;;;34.38;;
77099;SDS011;66602;48.922;2.414;2023-02-15T00:41:18;79.65;;;36.47;;
77099;SDS011;66602;48.922;2.414;2023-02-15T00:43:43;78.57;;;36.35;;
77099;SDS011;66602;48.922;2.414;2023-02-15T00:46:09;70.05;;;33.20;;
77099;SDS011;66602;48.922;2.414;2023-02-15T00:48:35;65.15;;;33.35;;
77099;SDS011;66602;48.922;2.414;2023-02-15T00:51:00;84.75;;;34.90;;
77099;SDS011;66602;48.922;2.414;2023-02-15T00:53:26;78.85;;;32.60;;
77099;SDS011;66602;48.922;2.414;2023-02-15T00:55:52;66.50;;;29.63;;
77099;SDS011;66602;48.922;2.414;2023-02-15T00:58:18;64.05;;;30.75;;
77099;SDS011;66602;48.922;2.414;2023-02-15T01:00:44;61.33;;;29.10;;
77099;SDS011;66602;48.922;2.414;2023-02-15T01:03:11;58.10;;;29.08;;
77099;SDS011;66602;48.922;2.414;2023-02-15T01:05:38;61.92;;;27.40;;
77099;SDS011;66602;48.922;2.414;2023-02-15T01:08:04;61.53;;;29.13;;
77099;SDS011;66602;48.922;2.414;2023-02-15T01:10:30;77.32;;;35.17;;
77099;SDS011;66602;48.922;2.414;2023-02-15T01:12:56;81.13;;;39.05;;
77099;SDS011;66602;48.922;2.414;2023-02-15T01:15:22;92.07;;;40.90;;
77099;SDS011;66602;48.922;2.414;2023-02-15T01:17:48;71.95;;;35.42;;
77099;SDS011;66602;48.922;2.414;2023-02-15T01:20:21;71.80;;;32.97;;
77099;SDS011;66602;48.922;2.414;2023-02-15T01:22:51;67.78;;;32.00;;
77099;SDS011;66602;48.922;2.414;2023-02-15T01:25:19;73.13;;;35.83;;
77099;SDS011;66602;48.922;2.414;2023-02-15T01:27:46;81.93;;;37.05;;
77099;SDS011;66602;48.922;2.414;2023-02-15T01:30:13;113.20;;;49.83;;
77099;SDS011;66602;48.922;2.414;2023-02-15T01:32:39;109.03;;;46.13;;
77099;SDS011;66602;48.922;2.414;2023-02-15T01:35:06;90.15;;;39.92;;
77099;SDS011;66602;48.922;2.414;2023-02-15T01:37:32;87.15;;;40.42;;
77099;SDS011;66602;48.922;2.414;2023-02-15T01:39:59;88.30;;;39.90;;
77099;SDS011;66602;48.922;2.414;2023-02-15T01:42:26;86.63;;;38.38;;
77099;SDS011;66602;48.922;2.414;2023-02-15T01:44:53;82.95;;;39.83;;
77099;SDS011;66602;48.922;2.414;2023-02-15T01:47:35;85.18;;;41.78;;
77099;SDS011;66602;48.922;2.414;2023-02-15T01:50:13;80.28;;;37.83;;
77099;SDS011;66602;48.922;2.414;2023-02-15T01:55:29;89.47;;;37.72;;
77099;SDS011;66602;48.922;2.414;2023-02-15T01:57:59;72.95;;;33.20;;
77099;SDS011;66602;48.922;2.414;2023-02-15T02:00:25;64.00;;;31.35;;
77099;SDS011;66602;48.922;2.414;2023-02-15T02:02:52;77.80;;;33.08;;
77099;SDS011;66602;48.922;2.414;2023-02-15T02:05:20;80.80;;;37.25;;
77099;SDS011;66602;48.922;2.414;2023-02-15T02:07:46;93.65;;;42.22;;
77099;SDS011;66602;48.922;2.414;2023-02-15T02:10:16;89.00;;;41.05;;
77099;SDS011;66602;48.922;2.414;2023-02-15T02:12:43;82.95;;;39.30;;
77099;SDS011;66602;48.922;2.414;2023-02-15T02:15:11;90.15;;;40.97;;
77099;SDS011;66602;48.922;2.414;2023-02-15T02:17:56;82.10;;;38.88;;
77099;SDS011;66602;48.922;2.414;2023-02-15T02:20:50;99.20;;;43.80;;
77099;SDS011;66602;48.922;2.414;2023-02-15T02:24:15;88.18;;;42.35;;
77099;SDS011;66602;48.922;2.414;2023-02-15T02:37:48;91.10;;;40.78;;
77099;SDS011;66602;48.922;2.414;2023-02-15T02:40:48;79.90;;;35.33;;
77099;SDS011;66602;48.922;2.414;2023-02-15T02:43:22;76.82;;;35.25;;
77099;SDS011;66602;48.922;2.414;2023-02-15T02:46:11;74.47;;;35.47;;
77099;SDS011;66602;48.922;2.414;2023-02-15T02:48:45;81.15;;;38.08;;
77099;SDS011;66602;48.922;2.414;2023-02-15T02:51:11;89.32;;;40.78;;
77099;SDS011;66602;48.922;2.414;2023-02-15T02:53:37;79.55;;;36.28;;
77099;SDS011;66602;48.922;2.414;2023-02-15T02:56:05;79.90;;;38.13;;
77099;SDS011;66602;48.922;2.414;2023-02-15T02:58:41;76.90;;;36.83;;
77099;SDS011;66602;48.922;2.414;2023-02-15T03:01:13;74.70;;;37.42;;
77099;SDS011;66602;48.922;2.414;2023-02-15T03:04:03;83.93;;;40.75;;
77099;SDS011;66602;48.922;2.414;2023-02-15T03:09:33;87.13;;;41.35;;
77099;SDS011;66602;48.922;2.414;2023-02-15T03:12:09;84.93;;;39.30;;
77099;SDS011;66602;48.922;2.414;2023-02-15T03:14:38;84.63;;;39.83;;
77099;SDS011;66602;48.922;2.414;2023-02-15T03:17:06;74.50;;;36.95;;
77099;SDS011;66602;48.922;2.414;2023-02-15T03:19:34;73.78;;;35.28;;
77099;SDS011;66602;48.922;2.414;2023-02-15T03:22:13;77.40;;;37.55;;
77099;SDS011;66602;48.922;2.414;2023-02-15T03:24:49;80.15;;;38.08;;
77099;SDS011;66602;48.922;2.414;2023-02-15T03:27:17;82.45;;;36.22;;
77099;SDS011;66602;48.922;2.414;2023-02-15T03:29:46;84.45;;;38.38;;
77099;SDS011;66602;48.922;2.414;2023-02-15T03:32:17;76.97;;;36.92;;
77099;SDS011;66602;48.922;2.414;2023-02-15T03:34:43;83.82;;;36.65;;
77099;SDS011;66602;48.922;2.414;2023-02-15T03:40:00;76.22;;;35.97;;
77099;SDS011;66602;48.922;2.414;2023-02-15T03:42:52;93.97;;;41.20;;
77099;SDS011;66602;48.922;2.414;2023-02-15T03:45:25;93.05;;;41.60;;
77099;SDS011;66602;48.922;2.414;2023-02-15T03:47:55;86.68;;;38.05;;
77099;SDS011;66602;48.922;2.414;2023-02-15T03:50:24;80.55;;;37.60;;
77099;SDS011;66602;48.922;2.414;2023-02-15T03:53:13;86.03;;;37.33;;
77099;SDS011;66602;48.922;2.414;2023-02-15T03:55:41;84.70;;;38.88;;
77099;SDS011;66602;48.922;2.414;2023-02-15T03:58:07;75.85;;;36.22;;
77099;SDS011;66602;48.922;2.414;2023-02-15T04:03:40;76.50;;;33.92;;
77099;SDS011;66602;48.922;2.414;2023-02-15T04:06:10;91.07;;;40.28;;
77099;SDS011;66602;48.922;2.414;2023-02-15T04:08:35;85.50;;;38.13;;
77099;SDS011;66602;48.922;2.414;2023-02-15T04:11:20;103.00;;;44.78;;
77099;SDS011;66602;48.922;2.414;2023-02-15T04:13:45;97.53;;;41.95;;
77099;SDS011;66602;48.922;2.414;2023-02-15T04:16:11;99.50;;;44.88;;
77099;SDS011;66602;48.922;2.414;2023-02-15T04:18:42;94.38;;;41.15;;
77099;SDS011;66602;48.922;2.414;2023-02-15T04:21:30;84.65;;;35.30;;
77099;SDS011;66602;48.922;2.414;2023-02-15T04:24:14;79.97;;;36.15;;
77099;SDS011;66602;48.922;2.414;2023-02-15T04:26:58;71.50;;;33.95;;
77099;SDS011;66602;48.922;2.414;2023-02-15T04:29:26;86.03;;;37.90;;
77099;SDS011;66602;48.922;2.414;2023-02-15T04:31:53;80.25;;;38.25;;
77099;SDS011;66602;48.922;2.414;2023-02-15T04:34:20;84.10;;;37.13;;
77099;SDS011;66602;48.922;2.414;2023-02-15T04:36:45;96.53;;;41.53;;
77099;SDS011;66602;48.922;2.414;2023-02-15T04:39:14;108.68;;;45.25;;
77099;SDS011;66602;48.922;2.414;2023-02-15T04:41:41;92.32;;;42.67;;
77099;SDS011;66602;48.922;2.414;2023-02-15T04:44:07;90.85;;;40.28;;
77099;SDS011;66602;48.922;2.414;2023-02-15T04:46:33;79.20;;;38.88;;
77099;SDS011;66602;48.922;2.414;2023-02-15T04:48:58;77.82;;;36.10;;
77099;SDS011;66602;48.922;2.414;2023-02-15T04:51:24;79.30;;;35.67;;
77099;SDS011;66602;48.922;2.414;2023-02-15T04:53:49;84.35;;;36.55;;
77099;SDS011;66602;48.922;2.414;2023-02-15T04:56:17;74.60;;;35.45;;
77099;SDS011;66602;48.922;2.414;2023-02-15T04:58:43;94.78;;;41.13;;
77099;SDS011;66602;48.922;2.414;2023-02-15T05:01:09;99.13;;;40.72;;
77099;SDS011;66602;48.922;2.414;2023-02-15T05:03:36;86.68;;;39.20;;
77099;SDS011;66602;48.922;2.414;2023-02-15T05:06:02;71.18;;;36.80;;
77099;SDS011;66602;48.922;2.414;2023-02-15T05:08:28;94.38;;;42.42;;
77099;SDS011;66602;48.922;2.414;2023-02-15T05:10:53;95.90;;;41.88;;
77099;SDS011;66602;48.922;2.414;2023-02-15T05:13:19;84.97;;;37.97;;
77099;SDS011;66602;48.922;2.414;2023-02-15T05:15:48;82.18;;;36.55;;
77099;SDS011;66602;48.922;2.414;2023-02-15T05:18:18;76.80;;;35.80;;
77099;SDS011;66602;48.922;2.414;2023-02-15T05:20:45;75.50;;;36.67;;
77099;SDS011;66602;48.922;2.414;2023-02-15T05:23:11;73.10;;;36.15;;
77099;SDS011;66602;48.922;2.414;2023-02-15T05:25:40;78.55;;;36.35;;
77099;SDS011;66602;48.922;2.414;2023-02-15T05:28:25;74.53;;;34.92;;
77099;SDS011;66602;48.922;2.414;2023-02-15T05:33:37;86.13;;;38.28;;
77099;SDS011;66602;48.922;2.414;2023-02-15T05:36:03;72.15;;;36.83;;
77099;SDS011;66602;48.922;2.414;2023-02-15T05:38:30;73.15;;;34.85;;
77099;SDS011;66602;48.922;2.414;2023-02-15T05:40:55;95.30;;;38.72;;
77099;SDS011;66602;48.922;2.414;2023-02-15T05:43:22;81.38;;;37.20;;
77099;SDS011;66602;48.922;2.414;2023-02-15T05:45:48;83.78;;;38.80;;
77099;SDS011;66602;48.922;2.414;2023-02-15T05:48:15;107.63;;;42.28;;
77099;SDS011;66602;48.922;2.414;2023-02-15T05:50:40;84.30;;;38.55;;
77099;SDS011;66602;48.922;2.414;2023-02-15T05:53:06;91.07;;;39.28;;
77099;SDS011;66602;48.922;2.414;2023-02-15T05:55:33;86.65;;;38.03;;
77099;SDS011;66602;48.922;2.414;2023-02-15T05:57:59;79.47;;;35.13;;
77099;SDS011;66602;48.922;2.414;2023-02-15T06:00:24;89.18;;;38.65;;
77099;SDS011;66602;48.922;2.414;2023-02-15T06:02:50;77.25;;;36.35;;
77099;SDS011;66602;48.922;2.414;2023-02-15T06:05:16;82.20;;;36.55;;
77099;SDS011;66602;48.922;2.414;2023-02-15T06:07:44;77.63;;;37.10;;
77099;SDS011;66602;48.922;2.414;2023-02-15T06:10:10;95.32;;;41.60;;
77099;SDS011;66602;48.922;2.414;2023-02-15T06:12:36;88.22;;;38.10;;
77099;SDS011;66602;48.922;2.414;2023-02-15T06:15:02;79.05;;;38.38;;
77099;SDS011;66602;48.922;2.414;2023-02-15T06:17:28;81.88;;;36.70;;
77099;SDS011;66602;48.922;2.414;2023-02-15T06:19:54;98.93;;;43.10;;
77099;SDS011;66602;48.922;2.414;2023-02-15T06:22:19;83.57;;;38.53;;
77099;SDS011;66602;48.922;2.414;2023-02-15T06:24:45;93.70;;;40.40;;
77099;SDS011;66602;48.922;2.414;2023-02-15T06:27:12;95.00;;;41.83;;
77099;SDS011;66602;48.922;2.414;2023-02-15T06:29:37;92.43;;;40.40;;
77099;SDS011;66602;48.922;2.414;2023-02-15T06:32:03;92.50;;;39.80;;
77099;SDS011;66602;48.922;2.414;2023-02-15T06:34:29;100.85;;;41.55;;
77099;SDS011;66602;48.922;2.414;2023-02-15T06:36:55;95.85;;;42.22;;
77099;SDS011;66602;48.922;2.414;2023-02-15T06:39:21;100.45;;;43.92;;
77099;SDS011;66602;48.922;2.414;2023-02-15T06:41:47;110.18;;;42.47;;
77099;SDS011;66602;48.922;2.414;2023-02-15T06:44:12;103.28;;;43.30;;
77099;SDS011;66602;48.922;2.414;2023-02-15T06:46:38;88.65;;;39.22;;
77099;SDS011;66602;48.922;2.414;2023-02-15T06:49:05;113.03;;;45.42;;
77099;SDS011;66602;48.922;2.414;2023-02-15T06:51:31;111.18;;;40.67;;
77099;SDS011;66602;48.922;2.414;2023-02-15T06:53:59;103.20;;;42.92;;
77099;SDS011;66602;48.922;2.414;2023-02-15T06:56:26;105.97;;;43.95;;
77099;SDS011;66602;48.922;2.414;2023-02-15T06:58:52;110.03;;;41.70;;
77099;SDS011;66602;48.922;2.414;2023-02-15T07:01:18;85.68;;;38.30;;
77099;SDS011;66602;48.922;2.414;2023-02-15T07:03:44;114.88;;;46.25;;
77099;SDS011;66602;48.922;2.414;2023-02-15T07:06:09;104.05;;;40.90;;
77099;SDS011;66602;48.922;2.414;2023-02-15T07:08:36;110.22;;;41.80;;
77099;SDS011;66602;48.922;2.414;2023-02-15T07:11:03;97.95;;;40.05;;
77099;SDS011;66602;48.922;2.414;2023-02-15T07:13:47;96.95;;;39.80;;
77099;SDS011;66602;48.922;2.414;2023-02-15T07:16:13;91.53;;;39.05;;
77099;SDS011;66602;48.922;2.414;2023-02-15T07:18:39;82.88;;;35.25;;
77099;SDS011;66602;48.922;2.414;2023-02-15T07:21:04;92.25;;;37.30;;
77099;SDS011;66602;48.922;2.414;2023-02-15T07:23:33;96.75;;;41.63;;
77099;SDS011;66602;48.922;2.414;2023-02-15T07:26:01;111.85;;;44.85;;
77099;SDS011;66602;48.922;2.414;2023-02-15T07:28:27;109.95;;;45.65;;
77099;SDS011;66602;48.922;2.414;2023-02-15T07:30:54;108.47;;;46.28;;
77099;SDS011;66602;48.922;2.414;2023-02-15T07:33:20;127.20;;;48.38;;
77099;SDS011;66602;48.922;2.414;2023-02-15T07:35:48;119.32;;;45.63;;
77099;SDS011;66602;48.922;2.414;2023-02-15T07:38:23;101.60;;;43.28;;
77099;SDS011;66602;48.922;2.414;2023-02-15T07:40:49;117.15;;;47.42;;
77099;SDS011;66602;48.922;2.414;2023-02-15T07:43:14;96.30;;;41.50;;
77099;SDS011;66602;48.922;2.414;2023-02-15T07:45:40;105.93;;;45.28;;
77099;SDS011;66602;48.922;2.414;2023-02-15T07:48:05;120.38;;;48.45;;
77099;SDS011;66602;48.922;2.414;2023-02-15T07:50:32;105.70;;;45.25;;
77099;SDS011;66602;48.922;2.414;2023-02-15T07:52:58;117.28;;;46.53;;
77099;SDS011;66602;48.922;2.414;2023-02-15T07:55:26;104.97;;;44.80;;
77099;SDS011;66602;48.922;2.414;2023-02-15T07:57:52;102.03;;;42.63;;
77099;SDS011;66602;48.922;2.414;2023-02-15T08:00:19;88.75;;;42.53;;
77099;SDS011;66602;48.922;2.414;2023-02-15T08:02:52;92.53;;;40.08;;
77099;SDS011;66602;48.922;2.414;2023-02-15T08:05:38;90.20;;;40.35;;
77099;SDS011;66602;48.922;2.414;2023-02-15T08:08:05;99.15;;;42.60;;
77099;SDS011;66602;48.922;2.414;2023-02-15T08:10:33;105.88;;;41.05;;
77099;SDS011;66602;48.922;2.414;2023-02-15T08:19:14;93.03;;;40.53;;
77099;SDS011;66602;48.922;2.414;2023-02-15T08:21:47;90.55;;;41.22;;
77099;SDS011;66602;48.922;2.414;2023-02-15T08:24:15;86.80;;;39.90;;
77099;SDS011;66602;48.922;2.414;2023-02-15T08:26:43;91.55;;;41.28;;
77099;SDS011;66602;48.922;2.414;2023-02-15T08:29:16;88.93;;;40.15;;
77099;SDS011;66602;48.922;2.414;2023-02-15T08:31:42;89.82;;;40.67;;
77099;SDS011;66602;48.922;2.414;2023-02-15T08:34:09;84.82;;;38.58;;
77099;SDS011;66602;48.922;2.414;2023-02-15T08:36:36;87.68;;;41.65;;
77099;SDS011;66602;48.922;2.414;2023-02-15T08:39:03;79.97;;;38.30;;
77099;SDS011;66602;48.922;2.414;2023-02-15T08:41:33;81.28;;;41.42;;
77099;SDS011;66602;48.922;2.414;2023-02-15T08:44:02;76.85;;;39.22;;
77099;SDS011;66602;48.922;2.414;2023-02-15T08:46:31;72.80;;;38.53;;
77099;SDS011;66602;48.922;2.414;2023-02-15T08:48:58;78.22;;;37.50;;
77099;SDS011;66602;48.922;2.414;2023-02-15T08:51:26;72.13;;;36.47;;
77099;SDS011;66602;48.922;2.414;2023-02-15T08:53:57;75.30;;;36.47;;
77099;SDS011;66602;48.922;2.414;2023-02-15T08:56:28;83.38;;;40.13;;
77099;SDS011;66602;48.922;2.414;2023-02-15T08:58:57;88.45;;;41.25;;
77099;SDS011;66602;48.922;2.414;2023-02-15T09:01:24;75.95;;;39.08;;
77099;SDS011;66602;48.922;2.414;2023-02-15T09:03:52;70.32;;;37.40;;
77099;SDS011;66602;48.922;2.414;2023-02-15T09:06:21;66.35;;;35.33;;
77099;SDS011;66602;48.922;2.414;2023-02-15T09:08:47;77.63;;;38.35;;
77099;SDS011;66602;48.922;2.414;2023-02-15T09:11:17;76.82;;;37.67;;
77099;SDS011;66602;48.922;2.414;2023-02-15T09:13:51;81.00;;;39.40;;
77099;SDS011;66602;48.922;2.414;2023-02-15T09:16:21;78.70;;;37.97;;
77099;SDS011;66602;48.922;2.414;2023-02-15T09:18:48;77.80;;;38.55;;
77099;SDS011;66602;48.922;2.414;2023-02-15T09:21:16;76.90;;;37.40;;
77099;SDS011;66602;48.922;2.414;2023-02-15T09:23:45;78.88;;;39.83;;
77099;SDS011;66602;48.922;2.414;2023-02-15T09:26:12;69.25;;;36.83;;
77099;SDS011;66602;48.922;2.414;2023-02-15T09:28:40;82.28;;;39.05;;
77099;SDS011;66602;48.922;2.414;2023-02-15T09:33:36;68.03;;;36.03;;
77099;SDS011;66602;48.922;2.414;2023-02-15T09:36:04;76.97;;;36.17;;
77099;SDS011;66602;48.922;2.414;2023-02-15T09:38:30;69.63;;;36.22;;
77099;SDS011;66602;48.922;2.414;2023-02-15T09:43:37;67.50;;;35.15;;
77099;SDS011;66602;48.922;2.414;2023-02-15T09:49:25;69.85;;;36.50;;
77099;SDS011;66602;48.922;2.414;2023-02-15T09:55:05;83.75;;;37.65;;
77099;SDS011;66602;48.922;2.414;2023-02-15T10:06:10;74.45;;;38.08;;
77099;SDS011;66602;48.922;2.414;2023-02-15T10:28:03;68.43;;;36.83;;
77099;SDS011;66602;48.922;2.414;2023-02-15T10:33:07;62.95;;;35.17;;
77099;SDS011;66602;48.922;2.414;2023-02-15T11:00:52;57.08;;;35.15;;
77099;SDS011;66602;48.922;2.414;2023-02-15T11:06:14;62.20;;;35.95;;
77099;SDS011;66602;48.922;2.414;2023-02-15T11:08:50;70.05;;;35.13;;
77099;SDS011;66602;48.922;2.414;2023-02-15T11:11:21;57.47;;;34.47;;
77099;SDS011;66602;48.922;2.414;2023-02-15T11:13:51;54.95;;;35.30;;
77099;SDS011;66602;48.922;2.414;2023-02-15T11:16:30;64.95;;;36.53;;
77099;SDS011;66602;48.922;2.414;2023-02-15T11:19:46;61.47;;;36.10;;
77099;SDS011;66602;48.922;2.414;2023-02-15T11:22:06;62.28;;;35.40;;
77099;SDS011;66602;48.922;2.414;2023-02-15T11:24:36;62.60;;;37.38;;
77099;SDS011;66602;48.922;2.414;2023-02-15T11:29:48;71.15;;;39.15;;
77099;SDS011;66602;48.922;2.414;2023-02-15T11:40:47;73.90;;;36.90;;
77099;SDS011;66602;48.922;2.414;2023-02-15T11:43:20;63.72;;;37.00;;
77099;SDS011;66602;48.922;2.414;2023-02-15T11:45:54;82.10;;;37.67;;
77099;SDS011;66602;48.922;2.414;2023-02-15T11:48:19;70.80;;;39.78;;
77099;SDS011;66602;48.922;2.414;2023-02-15T11:50:45;62.92;;;36.70;;
77099;SDS011;66602;48.922;2.414;2023-02-15T11:55:39;65.38;;;36.92;;
77099;SDS011;66602;48.922;2.414;2023-02-15T11:58:12;57.17;;;37.30;;
77099;SDS011;66602;48.922;2.414;2023-02-15T12:01:04;58.80;;;37.25;;
77099;SDS011;66602;48.922;2.414;2023-02-15T12:09:02;52.28;;;34.75;;
77099;SDS011;66602;48.922;2.414;2023-02-15T12:11:50;60.65;;;36.83;;
77099;SDS011;66602;48.922;2.414;2023-02-15T12:14:16;57.25;;;35.40;;
77099;SDS011;66602;48.922;2.414;2023-02-15T12:16:45;51.75;;;33.88;;
77099;SDS011;66602;48.922;2.414;2023-02-15T12:19:24;54.40;;;35.25;;
77099;SDS011;66602;48.922;2.414;2023-02-15T12:21:55;54.58;;;33.22;;
77099;SDS011;66602;48.922;2.414;2023-02-15T12:24:23;57.65;;;35.05;;
77099;SDS011;66602;48.922;2.414;2023-02-15T12:27:02;50.38;;;33.70;;
77099;SDS011;66602;48.922;2.414;2023-02-15T12:29:39;53.13;;;34.70;;
77099;SDS011;66602;48.922;2.414;2023-02-15T12:32:15;56.85;;;34.67;;
77099;SDS011;66602;48.922;2.414;2023-02-15T12:34:47;51.78;;;35.92;;
77099;SDS011;66602;48.922;2.414;2023-02-15T12:37:19;56.92;;;35.28;;
77099;SDS011;66602;48.922;2.414;2023-02-15T12:40:00;55.47;;;37.17;;
77099;SDS011;66602;48.922;2.414;2023-02-15T12:42:28;60.33;;;35.63;;
77099;SDS011;66602;48.922;2.414;2023-02-15T12:45:35;58.28;;;35.42;;
77099;SDS011;66602;48.922;2.414;2023-02-15T12:48:15;55.47;;;34.72;;
77099;SDS011;66602;48.922;2.414;2023-02-15T12:50:45;57.28;;;35.40;;
77099;SDS011;66602;48.922;2.414;2023-02-15T12:56:02;52.75;;;32.67;;
77099;SDS011;66602;48.922;2.414;2023-02-15T12:58:34;59.70;;;35.75;;
77099;SDS011;66602;48.922;2.414;2023-02-15T13:03:53;54.45;;;34.72;;
77099;SDS011;66602;48.922;2.414;2023-02-15T13:06:25;63.70;;;34.45;;
77099;SDS011;66602;48.922;2.414;2023-02-15T13:08:57;51.72;;;34.85;;
77099;SDS011;66602;48.922;2.414;2023-02-15T13:11:30;55.15;;;35.42;;
77099;SDS011;66602;48.922;2.414;2023-02-15T13:14:01;52.75;;;34.40;;
77099;SDS011;66602;48.922;2.414;2023-02-15T13:16:48;56.95;;;35.10;;
77099;SDS011;66602;48.922;2.414;2023-02-15T13:19:17;61.50;;;36.75;;
77099;SDS011;66602;48.922;2.414;2023-02-15T13:21:46;62.10;;;36.75;;
77099;SDS011;66602;48.922;2.414;2023-02-15T13:24:21;63.20;;;36.05;;
77099;SDS011;66602;48.922;2.414;2023-02-15T13:26:50;61.00;;;36.42;;
77099;SDS011;66602;48.922;2.414;2023-02-15T13:29:26;65.72;;;36.20;;
77099;SDS011;66602;48.922;2.414;2023-02-15T13:31:55;57.20;;;34.08;;
77099;SDS011;66602;48.922;2.414;2023-02-15T13:34:32;59.10;;;33.85;;
77099;SDS011;66602;48.922;2.414;2023-02-15T13:39:49;62.60;;;34.53;;
77099;SDS011;66602;48.922;2.414;2023-02-15T13:47:51;49.90;;;30.85;;
77099;SDS011;66602;48.922;2.414;2023-02-15T13:53:28;64.63;;;33.58;;
77099;SDS011;66602;48.922;2.414;2023-02-15T13:56:20;64.55;;;33.92;;
77099;SDS011;66602;48.922;2.414;2023-02-15T13:59:09;56.70;;;33.40;;
77099;SDS011;66602;48.922;2.414;2023-02-15T14:07:17;55.17;;;33.08;;
77099;SDS011;66602;48.922;2.414;2023-02-15T14:28:31;49.47;;;31.33;;
77099;SDS011;66602;48.922;2.414;2023-02-15T14:31:04;50.05;;;30.48;;
77099;SDS011;66602;48.922;2.414;2023-02-15T14:33:36;52.92;;;30.88;;
77099;SDS011;66602;48.922;2.414;2023-02-15T14:36:05;60.42;;;32.72;;
77099;SDS011;66602;48.922;2.414;2023-02-15T14:38:55;50.38;;;29.80;;
77099;SDS011;66602;48.922;2.414;2023-02-15T14:41:25;48.35;;;29.85;;
77099;SDS011;66602;48.922;2.414;2023-02-15T14:49:21;51.70;;;29.98;;
77099;SDS011;66602;48.922;2.414;2023-02-15T14:56:46;48.20;;;29.33;;
77099;SDS011;66602;48.922;2.414;2023-02-15T15:02:09;40.63;;;28.00;;
77099;SDS011;66602;48.922;2.414;2023-02-15T15:04:55;54.67;;;29.17;;
77099;SDS011;66602;48.922;2.414;2023-02-15T15:10:31;48.00;;;28.98;;
77099;SDS011;66602;48.922;2.414;2023-02-15T15:15:57;43.08;;;26.77;;
77099;SDS011;66602;48.922;2.414;2023-02-15T15:19:00;47.22;;;28.10;;
77099;SDS011;66602;48.922;2.414;2023-02-15T15:24:57;44.10;;;27.55;;
77099;SDS011;66602;48.922;2.414;2023-02-15T15:32:54;39.58;;;25.35;;
77099;SDS011;66602;48.922;2.414;2023-02-15T15:35:55;36.25;;;26.90;;
77099;SDS011;66602;48.922;2.414;2023-02-15T15:38:55;42.90;;;27.08;;
77099;SDS011;66602;48.922;2.414;2023-02-15T15:41:43;42.75;;;26.38;;
77099;SDS011;66602;48.922;2.414;2023-02-15T15:49:59;49.22;;;28.77;;
77099;SDS011;66602;48.922;2.414;2023-02-15T15:52:25;41.67;;;26.67;;
77099;SDS011;66602;48.922;2.414;2023-02-15T15:54:56;41.88;;;27.02;;
77099;SDS011;66602;48.922;2.414;2023-02-15T16:00:03;37.65;;;25.17;;
77099;SDS011;66602;48.922;2.414;2023-02-15T16:02:52;43.45;;;27.05;;
77099;SDS011;66602;48.922;2.414;2023-02-15T16:05:18;37.80;;;26.55;;
77099;SDS011;66602;48.922;2.414;2023-02-15T16:07:44;40.80;;;25.73;;
77099;SDS011;66602;48.922;2.414;2023-02-15T16:10:23;41.83;;;26.63;;
77099;SDS011;66602;48.922;2.414;2023-02-15T16:12:51;44.63;;;27.75;;
77099;SDS011;66602;48.922;2.414;2023-02-15T16:15:19;39.25;;;26.80;;
77099;SDS011;66602;48.922;2.414;2023-02-15T16:17:49;42.17;;;26.02;;
77099;SDS011;66602;48.922;2.414;2023-02-15T16:20:24;34.78;;;25.05;;
77099;SDS011;66602;48.922;2.414;2023-02-15T16:23:25;52.95;;;26.20;;
77099;SDS011;66602;48.922;2.414;2023-02-15T16:28:49;45.00;;;24.88;;
77099;SDS011;66602;48.922;2.414;2023-02-15T16:31:19;35.90;;;23.73;;
77099;SDS011;66602;48.922;2.414;2023-02-15T16:33:47;40.30;;;24.13;;
77099;SDS011;66602;48.922;2.414;2023-02-15T16:36:24;36.65;;;23.50;;
77099;SDS011;66602;48.922;2.414;2023-02-15T16:41:23;42.20;;;24.92;;
77099;SDS011;66602;48.922;2.414;2023-02-15T16:43:52;36.20;;;24.77;;
77099;SDS011;66602;48.922;2.414;2023-02-15T16:46:21;37.58;;;25.15;;
77099;SDS011;66602;48.922;2.414;2023-02-15T16:48:57;44.53;;;25.98;;
77099;SDS011;66602;48.922;2.414;2023-02-15T16:51:30;44.85;;;25.23;;
77099;SDS011;66602;48.922;2.414;2023-02-15T16:53:59;42.05;;;25.23;;
77099;SDS011;66602;48.922;2.414;2023-02-15T16:56:31;44.58;;;25.55;;
77099;SDS011;66602;48.922;2.414;2023-02-15T16:58:58;44.47;;;26.23;;
77099;SDS011;66602;48.922;2.414;2023-02-15T17:01:25;46.75;;;24.85;;
77099;SDS011;66602;48.922;2.414;2023-02-15T17:06:37;41.35;;;25.92;;
77099;SDS011;66602;48.922;2.414;2023-02-15T17:09:03;37.47;;;23.55;;
77099;SDS011;66602;48.922;2.414;2023-02-15T17:11:49;38.30;;;24.42;;
77099;SDS011;66602;48.922;2.414;2023-02-15T17:14:18;37.72;;;24.65;;
77099;SDS011;66602;48.922;2.414;2023-02-15T17:16:53;36.20;;;23.75;;
77099;SDS011;66602;48.922;2.414;2023-02-15T17:19:27;44.10;;;25.75;;
77099;SDS011;66602;48.922;2.414;2023-02-15T17:21:58;39.38;;;24.60;;
77099;SDS011;66602;48.922;2.414;2023-02-15T17:27:02;42.85;;;24.73;;
77099;SDS011;66602;48.922;2.414;2023-02-15T17:29:32;42.10;;;25.38;;
77099;SDS011;66602;48.922;2.414;2023-02-15T17:31:59;45.78;;;26.02;;
77099;SDS011;66602;48.922;2.414;2023-02-15T17:37:24;36.35;;;24.33;;
77099;SDS011;66602;48.922;2.414;2023-02-15T17:39:59;38.88;;;25.60;;
77099;SDS011;66602;48.922;2.414;2023-02-15T17:42:26;45.28;;;24.90;;
77099;SDS011;66602;48.922;2.414;2023-02-15T17:44:52;35.65;;;22.13;;
77099;SDS011;66602;48.922;2.414;2023-02-15T17:47:22;48.40;;;24.13;;
77099;SDS011;66602;48.922;2.414;2023-02-15T17:49:49;36.33;;;25.05;;
77099;SDS011;66602;48.922;2.414;2023-02-15T17:52:15;43.17;;;24.60;;
77099;SDS011;66602;48.922;2.414;2023-02-15T17:54:42;39.78;;;25.35;;
77099;SDS011;66602;48.922;2.414;2023-02-15T17:57:27;42.05;;;25.65;;
77099;SDS011;66602;48.922;2.414;2023-02-15T17:59:54;44.35;;;25.17;;
77099;SDS011;66602;48.922;2.414;2023-02-15T18:02:38;39.53;;;25.05;;
77099;SDS011;66602;48.922;2.414;2023-02-15T18:05:23;36.75;;;23.70;;
77099;SDS011;66602;48.922;2.414;2023-02-15T18:08:12;41.05;;;26.45;;
77099;SDS011;66602;48.922;2.414;2023-02-15T18:31:36;50.50;;;25.27;;
77099;SDS011;66602;48.922;2.414;2023-02-15T18:34:02;47.38;;;26.20;;
77099;SDS011;66602;48.922;2.414;2023-02-15T18:36:35;52.35;;;28.70;;